Terminal Aerodrome Forecast
Issued by NWS Bismarck, ND

Home | Current Version | Previous Version | Text Only | Print | Product List | Glossary Off
Versions: 1 2 3 4 5 6 7 8 9 10 11 12 13 14 15 16 17 18 19 20 21

000
FTUS43 KBIS 170500
TAFISN
TAF
KISN 170520Z 1706/1806 09012KT P6SM SCT025 OVC035
     FM170900 11008KT P6SM BKN025 OVC035
     FM171400 12013KT P6SM VCSH BKN025
     FM171900 14016G22KT P6SM BKN050
     FM180300 13013KT P6SM SCT025 BKN070
      AMD NOT SKED=

USA.gov is the U.S. government's official web portal to all federal, state and local government web resources and services.